Bookmark and Share
Track history (hours):
 

Wolgastern

Last reported at 2014-Apr-17 12:16 UTC. Time now 2014-Apr-17 18:34 UTC.
Position N 51°53' E 004°18'.

Length 162 m; draft 6.6 m.

Type: Ship. MMSI: 255804950.

NotesDate/timePositionNaut miles runAvg speedWind from/ knotsBaromVisibWave heightAir tempDewpointWater temp
2014-Apr-17 12:16N 51°53' E 004°18'0 0.5
2014-Apr-17 11:33N 51°53' E 004°18'7 7.1
2014-Apr-17 10:33N 51°57' E 004°10'1111.1
2014-Apr-17 09:33N 51°60' E 003°52'10 9.4
2014-Apr-17 08:32N 52°05' E 003°38'6 6.0
2014-Apr-17 07:32N 52°10' E 003°35'0 0.1
2014-Apr-17 06:29N 52°10' E 003°35'0 0.0
2014-Apr-17 05:28N 52°10' E 003°35'0 0.0
2014-Apr-17 04:25N 52°10' E 003°35'0 0.0
2014-Apr-17 03:30N 52°10' E 003°35'0 0.0
2014-Apr-17 02:24N 52°10' E 003°35'0 0.0
2014-Apr-17 01:30N 52°10' E 003°35'0 0.0
2014-Apr-17 00:32N 52°10' E 003°35'0 0.0
2014-Apr-16 23:26N 52°10' E 003°35'0 0.0
2014-Apr-16 22:31N 52°10' E 003°35'0 0.0
2014-Apr-16 21:31N 52°10' E 003°35'0 0.0
2014-Apr-16 20:33N 52°10' E 003°35'0 0.0
2014-Apr-16 19:18N 52°10' E 003°35'1 1.3
2014-Apr-16 18:33N 52°10' E 003°36'7 7.0
2014-Apr-16 17:33N 52°13' E 003°46'1212.4
2014-Apr-16 16:33N 52°25' E 003°49'10 9.9
2014-Apr-16 15:34N 52°31' E 004°02'7 7.3
2014-Apr-16 14:32N 52°31' E 004°15'0 0.1
2014-Apr-16 13:32N 52°31' E 004°15'0 0.0
2014-Apr-16 12:32N 52°31' E 004°15'0 0.0
2014-Apr-16 11:31N 52°31' E 004°15'0 0.0
2014-Apr-16 10:31N 52°31' E 004°15'0 0.0
2014-Apr-16 09:33N 52°31' E 004°15'0 0.0
2014-Apr-16 08:33N 52°31' E 004°15'0 0.0
2014-Apr-16 07:32N 52°31' E 004°15'0 0.0
2014-Apr-16 06:29N 52°31' E 004°15'0 0.0
2014-Apr-16 05:32N 52°31' E 004°15'0 0.0
2014-Apr-16 04:28N 52°31' E 004°15'0 0.0
2014-Apr-16 03:28N 52°31' E 004°15'0 0.0
2014-Apr-16 02:33N 52°31' E 004°15'0 0.0
2014-Apr-16 01:33N 52°31' E 004°15'0 0.0
2014-Apr-16 00:32N 52°31' E 004°15'0 0.0
2014-Apr-15 23:26N 52°31' E 004°15'0 0.0
2014-Apr-15 22:19N 52°31' E 004°15'0 0.0
2014-Apr-15 21:13N 52°31' E 004°15'0 0.0
2014-Apr-15 20:31N 52°31' E 004°15'0 0.0
2014-Apr-15 19:33N 52°31' E 004°15'0 0.0
2014-Apr-15 18:33N 52°31' E 004°15'0 0.0
2014-Apr-15 17:32N 52°31' E 004°15'0 0.1
2014-Apr-15 16:32N 52°31' E 004°15'0 0.0
2014-Apr-15 15:31N 52°31' E 004°15'0 0.0
2014-Apr-15 14:28N 52°31' E 004°15'0 0.0
2014-Apr-15 12:31N 52°31' E 004°15'0 0.0
2014-Apr-15 11:34N 52°31' E 004°15'0 0.0
2014-Apr-15 10:33N 52°31' E 004°15'0 0.0
2014-Apr-15 09:33N 52°31' E 004°15'0 0.0
2014-Apr-15 08:32N 52°31' E 004°15'0 0.0
2014-Apr-15 07:32N 52°31' E 004°15'0 0.0
2014-Apr-15 06:34N 52°31' E 004°15'0 0.0
2014-Apr-15 05:34N 52°31' E 004°15'0 0.0
2014-Apr-15 03:34N 52°31' E 004°15'0 0.0
2014-Apr-15 02:34N 52°31' E 004°15'0 0.0
2014-Apr-15 01:34N 52°31' E 004°15'0 0.0
2014-Apr-15 00:34N 52°31' E 004°15'0 0.0
2014-Apr-14 23:34N 52°31' E 004°15'3 2.7
2014-Apr-14 22:34N 52°30' E 004°19'7 6.6
2014-Apr-14 21:34N 52°28' E 004°29'5 4.6
2014-Apr-14 20:34N 52°28' E 004°37'5 4.8
2014-Apr-14 19:34N 52°26' E 004°44'4 4.2
2014-Apr-14 18:33N 52°25' E 004°50'0 0.0
2014-Apr-14 17:33N 52°25' E 004°50'0 0.0
2014-Apr-14 16:32N 52°25' E 004°50'0 0.0
2014-Apr-14 15:32N 52°25' E 004°50'0 0.0
2014-Apr-13 06:27N 52°25' E 004°50'0 0.4
2014-Apr-13 05:33N 52°25' E 004°50'8 8.2
2014-Apr-13 04:33N 52°28' E 004°38'1 1.4
2014-Apr-13 03:33N 52°28' E 004°35'4 4.3
2014-Apr-13 02:33N 52°28' E 004°28'1010.0
2014-Apr-13 01:33N 52°29' E 004°12'9 8.6
2014-Apr-13 00:34N 52°36' E 004°04'  

Dump ship's entire track history

sailing weather and tide predictions

Wolgastern — CQLH — position and weather